createdAt,value
2022-10-03T00:01:44.225Z,6.70
2022-10-03T00:05:14.405Z,6.73
2022-10-03T00:09:04.518Z,6.85
2022-10-03T00:12:16.311Z,6.82
2022-10-03T00:15:52.159Z,7.14
2022-10-03T00:19:26.604Z,7.19
2022-10-03T00:23:01.328Z,7.32
2022-10-03T00:26:30.505Z,7.21
2022-10-03T00:29:39.275Z,6.99
2022-10-03T00:33:03.262Z,6.82
2022-10-03T00:36:27.170Z,6.82
2022-10-03T00:39:38.421Z,7.21
2022-10-03T00:43:00.063Z,7.42
2022-10-03T00:46:25.407Z,7.34
2022-10-03T00:49:37.980Z,6.93
2022-10-03T00:52:53.522Z,6.92
2022-10-03T00:56:54.181Z,6.99
2022-10-03T01:00:33.189Z,7.00
2022-10-03T01:03:54.072Z,7.00
2022-10-03T01:07:02.988Z,7.23
2022-10-03T01:10:22.885Z,7.16
2022-10-03T01:13:57.481Z,7.03
2022-10-03T01:17:02.855Z,7.06
2022-10-03T01:20:12.167Z,6.97
2022-10-03T01:23:34.734Z,6.99
2022-10-03T01:27:20.891Z,7.04
2022-10-03T01:30:23.574Z,7.19
2022-10-03T01:33:27.755Z,7.12
2022-10-03T01:37:12.738Z,7.11
2022-10-03T01:40:32.080Z,7.16
2022-10-03T01:43:42.259Z,7.03
2022-10-03T01:46:46.447Z,7.08
2022-10-03T01:49:54.291Z,7.09
2022-10-03T01:53:07.286Z,7.11
2022-10-03T01:56:18.155Z,7.21
2022-10-03T01:59:25.371Z,7.06
2022-10-03T02:02:35.429Z,7.00
2022-10-03T02:06:04.768Z,7.18
2022-10-03T02:09:29.924Z,7.23
2022-10-03T02:12:35.163Z,7.29
2022-10-03T02:15:54.546Z,7.04
2022-10-03T02:19:11.311Z,6.93
2022-10-03T02:22:29.395Z,6.96
2022-10-03T02:25:41.137Z,6.91
2022-10-03T02:29:08.474Z,7.09
2022-10-03T02:33:14.612Z,7.00
2022-10-03T02:37:01.784Z,7.16
2022-10-03T02:40:10.729Z,7.14
2022-10-03T02:44:03.825Z,6.86
2022-10-03T02:47:26.630Z,7.07
2022-10-03T02:51:17.942Z,7.09
2022-10-03T02:54:41.312Z,7.20
2022-10-03T02:58:22.894Z,7.10
2022-10-03T03:01:34.287Z,7.09
2022-10-03T03:05:14.558Z,6.88
2022-10-03T03:08:43.167Z,7.19
2022-10-03T03:12:13.852Z,7.29
2022-10-03T03:15:37.827Z,7.03
2022-10-03T03:19:04.691Z,7.17
2022-10-03T03:23:05.452Z,7.08
2022-10-03T03:26:43.542Z,7.07
2022-10-03T03:30:14.113Z,7.01
2022-10-03T03:33:44.839Z,7.10
2022-10-03T03:36:47.636Z,7.29
2022-10-03T03:40:05.235Z,7.30
2022-10-03T03:43:24.188Z,7.26
2022-10-03T03:47:19.547Z,7.18
2022-10-03T03:50:29.614Z,7.33
2022-10-03T03:54:07.817Z,7.18
2022-10-03T03:57:16.493Z,7.12
2022-10-03T04:01:09.023Z,7.17
2022-10-03T04:04:41.234Z,7.14
2022-10-03T04:08:25.899Z,7.28
2022-10-03T04:11:45.402Z,6.97
2022-10-03T04:15:04.418Z,7.29
2022-10-03T04:18:58.115Z,7.29
2022-10-03T04:22:29.176Z,7.37
2022-10-03T04:25:54.801Z,7.36
2022-10-03T04:29:25.091Z,7.45
2022-10-03T04:33:09.281Z,7.34
2022-10-03T04:36:38.675Z,7.37
2022-10-03T04:39:57.055Z,7.48
2022-10-03T04:43:10.639Z,7.43
2022-10-03T04:46:54.301Z,7.48
2022-10-03T04:50:11.603Z,7.45
2022-10-03T04:53:08.448Z,7.58
2022-10-03T04:56:35.802Z,7.56
2022-10-03T04:59:43.661Z,7.59
2022-10-03T05:02:53.872Z,7.61
2022-10-03T05:06:02.810Z,7.31
2022-10-03T05:09:41.462Z,7.45
2022-10-03T05:13:18.365Z,7.53
2022-10-03T05:16:18.158Z,7.43
2022-10-03T05:19:46.519Z,7.44
2022-10-03T05:23:08.182Z,7.58
2022-10-03T05:26:45.159Z,7.73
2022-10-03T05:30:02.138Z,7.55
2022-10-03T05:33:23.321Z,7.55
2022-10-03T05:37:18.226Z,7.63
2022-10-03T05:40:24.523Z,7.73
2022-10-03T05:43:43.831Z,7.79
2022-10-03T05:46:40.611Z,7.90
2022-10-03T05:49:55.286Z,7.92
2022-10-03T05:53:53.888Z,7.70
2022-10-03T05:57:42.559Z,7.72
2022-10-03T06:01:21.479Z,7.88
2022-10-03T06:05:14.573Z,8.06
2022-10-03T06:08:29.983Z,8.11
2022-10-03T06:12:04.238Z,8.04
2022-10-03T06:15:38.413Z,8.14
2022-10-03T06:19:29.675Z,8.34
2022-10-03T06:23:06.159Z,8.50
2022-10-03T06:26:44.102Z,8.68
2022-10-03T06:30:05.606Z,8.74
2022-10-03T06:33:29.706Z,8.81
2022-10-03T06:36:58.454Z,8.73
2022-10-03T06:40:19.608Z,8.68
2022-10-03T06:43:53.307Z,8.76
2022-10-03T06:47:22.185Z,8.81
2022-10-03T06:50:39.513Z,8.75
2022-10-03T06:54:16.819Z,8.70
2022-10-03T06:57:59.755Z,8.72
2022-10-03T07:01:59.361Z,8.88
2022-10-03T07:05:20.330Z,8.89
2022-10-03T07:08:38.985Z,8.98
2022-10-03T07:12:10.836Z,8.97
2022-10-03T07:15:50.223Z,8.89
2022-10-03T07:19:20.322Z,9.05
2022-10-03T07:22:54.644Z,9.01
2022-10-03T07:26:28.159Z,9.04
2022-10-03T07:29:46.111Z,9.16
2022-10-03T07:33:25.695Z,9.22
2022-10-03T07:37:06.221Z,9.17
2022-10-03T07:40:52.066Z,9.18
2022-10-03T07:44:13.437Z,9.38
2022-10-03T07:47:31.712Z,9.39
2022-10-03T07:50:59.294Z,9.45
2022-10-03T07:54:35.060Z,9.35
2022-10-03T07:57:54.860Z,9.65
2022-10-03T08:01:25.260Z,9.50
2022-10-03T08:04:54.460Z,9.66
2022-10-03T08:08:21.969Z,9.57
2022-10-03T08:11:49.602Z,9.53
2022-10-03T08:15:08.925Z,9.49
2022-10-03T08:18:55.811Z,9.67
2022-10-03T08:22:32.516Z,9.59
2022-10-03T08:26:11.139Z,9.48
2022-10-03T08:29:36.070Z,9.59
2022-10-03T08:33:11.707Z,9.51
2022-10-03T08:36:42.549Z,9.57
2022-10-03T08:40:03.602Z,10.02
2022-10-03T08:43:40.610Z,10.32
2022-10-03T08:47:08.117Z,10.24
2022-10-03T08:50:19.393Z,10.38
2022-10-03T08:53:54.579Z,10.01
2022-10-03T08:57:15.480Z,10.67
2022-10-03T09:00:23.018Z,10.68
2022-10-03T09:04:31.461Z,11.60
2022-10-03T09:07:31.298Z,11.61
2022-10-03T09:11:05.295Z,12.36
2022-10-03T09:14:31.190Z,12.39
2022-10-03T09:18:14.221Z,11.76
2022-10-03T09:22:02.636Z,12.31
2022-10-03T09:25:31.099Z,12.49
2022-10-03T09:28:54.668Z,12.77
2022-10-03T09:32:48.307Z,13.35
2022-10-03T09:36:23.708Z,12.63
2022-10-03T09:39:51.087Z,12.44
2022-10-03T09:43:27.064Z,11.94
2022-10-03T09:47:13.307Z,11.65
2022-10-03T09:50:44.799Z,11.27
2022-10-03T09:54:10.103Z,11.29
2022-10-03T09:57:54.918Z,11.85
2022-10-03T10:01:27.153Z,12.28
2022-10-03T10:05:14.975Z,11.51
2022-10-03T10:08:57.287Z,11.25
2022-10-03T10:12:38.839Z,11.04
2022-10-03T10:16:19.541Z,10.69
2022-10-03T10:19:44.551Z,11.14
2022-10-03T10:23:38.136Z,12.70
2022-10-03T10:27:26.393Z,13.22
2022-10-03T10:30:28.870Z,12.23
2022-10-03T10:34:23.893Z,11.89
2022-10-03T10:37:35.747Z,11.62
2022-10-03T10:41:12.560Z,11.61
2022-10-03T10:44:33.283Z,11.65
2022-10-03T10:48:26.319Z,11.09
2022-10-03T10:52:00.352Z,11.15
2022-10-03T10:55:45.951Z,11.45
2022-10-03T10:59:30.978Z,10.92
2022-10-03T11:03:27.991Z,11.45
2022-10-03T11:07:16.114Z,11.42
2022-10-03T11:10:52.352Z,11.86
2022-10-03T11:14:21.571Z,11.77
2022-10-03T11:17:51.290Z,11.69
2022-10-03T11:21:21.987Z,11.96
2022-10-03T11:25:00.104Z,11.58
2022-10-03T11:28:48.436Z,11.66
2022-10-03T11:33:01.879Z,11.59
2022-10-03T11:36:37.280Z,11.54
2022-10-03T11:39:49.095Z,11.47
2022-10-03T11:43:00.473Z,11.59
2022-10-03T11:46:22.493Z,11.96
2022-10-03T11:50:15.356Z,11.48
2022-10-03T11:53:41.471Z,11.72
2022-10-03T11:56:47.248Z,12.18
2022-10-03T11:59:57.612Z,12.09
2022-10-03T12:03:30.045Z,12.14
2022-10-03T12:07:09.461Z,11.99
2022-10-03T12:10:44.204Z,11.88
2022-10-03T12:14:27.925Z,12.14
2022-10-03T12:17:37.098Z,11.87
2022-10-03T12:21:05.059Z,11.72
2022-10-03T12:24:05.449Z,11.98
2022-10-03T12:27:48.354Z,11.66
2022-10-03T12:30:51.520Z,12.01
2022-10-03T12:34:14.448Z,12.04
2022-10-03T12:37:49.151Z,12.02
2022-10-03T12:41:18.341Z,11.96
2022-10-03T12:44:33.839Z,11.93
2022-10-03T12:48:04.692Z,13.50
2022-10-03T12:51:06.124Z,12.48
2022-10-03T12:54:11.470Z,12.38
2022-10-03T12:57:22.844Z,12.17
2022-10-03T13:00:46.078Z,12.18
2022-10-03T13:04:11.543Z,12.16
2022-10-03T13:07:52.817Z,12.31
2022-10-03T13:11:03.710Z,12.29
2022-10-03T13:14:28.652Z,12.03
2022-10-03T13:17:53.124Z,12.13
2022-10-03T13:21:01.199Z,11.72
2022-10-03T13:24:22.416Z,11.96
2022-10-03T13:27:46.681Z,11.82
2022-10-03T13:31:04.113Z,11.91
2022-10-03T13:34:13.825Z,11.49
2022-10-03T13:37:59.401Z,11.77
2022-10-03T13:41:17.221Z,11.67
2022-10-03T13:44:39.252Z,11.48
2022-10-03T13:47:55.822Z,11.48
2022-10-03T13:51:06.352Z,11.89
2022-10-03T13:54:21.063Z,11.63
2022-10-03T13:57:28.466Z,11.72
2022-10-03T14:00:31.133Z,11.84
2022-10-03T14:03:52.723Z,11.47
2022-10-03T14:07:24.431Z,11.40
2022-10-03T14:11:04.287Z,11.63
2022-10-03T14:14:34.183Z,11.30
2022-10-03T14:17:53.248Z,11.51
2022-10-03T14:21:27.092Z,11.63
2022-10-03T14:24:36.821Z,11.44
2022-10-03T14:27:51.992Z,11.53
2022-10-03T14:31:06.076Z,11.38
2022-10-03T14:34:34.600Z,11.79
2022-10-03T14:37:46.259Z,11.55
2022-10-03T14:41:04.056Z,11.42
2022-10-03T14:44:13.203Z,11.51
2022-10-03T14:47:17.355Z,11.51
2022-10-03T14:50:31.461Z,11.48
2022-10-03T14:53:30.055Z,11.61
2022-10-03T14:56:27.191Z,11.37
2022-10-03T14:59:33.551Z,11.57
2022-10-03T15:02:37.747Z,11.54
2022-10-03T15:05:36.532Z,11.69
2022-10-03T15:08:40.171Z,11.73
2022-10-03T15:11:45.935Z,11.47
2022-10-03T15:14:54.779Z,11.39
2022-10-03T15:17:54.821Z,11.45
2022-10-03T15:20:55.089Z,11.37
2022-10-03T15:24:04.972Z,11.36
2022-10-03T15:27:20.120Z,11.29
2022-10-03T15:30:30.820Z,11.30
2022-10-03T15:33:33.603Z,11.36
2022-10-03T15:36:40.875Z,11.01
2022-10-03T15:39:42.066Z,10.92
2022-10-03T15:43:28.505Z,11.04
2022-10-03T15:46:44.238Z,11.10
2022-10-03T15:50:07.949Z,10.86
2022-10-03T15:53:36.254Z,10.79
2022-10-03T15:56:41.777Z,10.70
2022-10-03T15:59:44.744Z,10.69
2022-10-03T16:02:53.509Z,10.64
2022-10-03T16:06:19.215Z,10.50
2022-10-03T16:09:50.956Z,10.52
2022-10-03T16:13:22.164Z,10.58
2022-10-03T16:16:39.492Z,10.44
2022-10-03T16:19:55.435Z,10.32
2022-10-03T16:23:00.291Z,10.31
2022-10-03T16:26:04.234Z,10.24
2022-10-03T16:29:10.498Z,10.16
2022-10-03T16:32:19.540Z,10.14
2022-10-03T16:35:45.086Z,10.06
2022-10-03T16:39:01.546Z,10.00
2022-10-03T16:41:59.507Z,9.98
2022-10-03T16:45:00.901Z,9.92
2022-10-03T16:48:21.562Z,9.83
2022-10-03T16:51:42.036Z,9.89
2022-10-03T16:54:41.202Z,9.79
2022-10-03T16:57:45.991Z,9.65
2022-10-03T17:01:26.258Z,9.67
2022-10-03T17:04:29.601Z,9.67
2022-10-03T17:07:35.982Z,9.52
2022-10-03T17:10:39.766Z,9.63
2022-10-03T17:13:46.974Z,9.61
2022-10-03T17:17:05.219Z,9.58
2022-10-03T17:20:32.035Z,9.38
2022-10-03T17:24:10.510Z,9.50
2022-10-03T17:27:36.644Z,9.29
2022-10-03T17:30:52.002Z,9.08
2022-10-03T17:33:55.071Z,8.99
2022-10-03T17:37:34.762Z,8.88
2022-10-03T17:40:49.335Z,8.70
2022-10-03T17:44:28.283Z,8.56
2022-10-03T17:47:52.936Z,8.41
2022-10-03T17:51:19.555Z,8.52
2022-10-03T17:54:39.105Z,8.39
2022-10-03T17:57:51.932Z,8.24
2022-10-03T18:01:20.943Z,8.22
2022-10-03T18:04:41.191Z,8.05
2022-10-03T18:07:39.228Z,8.04
2022-10-03T18:10:39.872Z,8.09
2022-10-03T18:13:43.515Z,8.09
2022-10-03T18:17:06.948Z,8.01
2022-10-03T18:20:47.381Z,7.96
2022-10-03T18:24:24.982Z,7.77
2022-10-03T18:27:59.407Z,7.88
2022-10-03T18:31:22.256Z,7.63
2022-10-03T18:34:23.425Z,7.72
2022-10-03T18:37:26.093Z,7.64
2022-10-03T18:40:36.827Z,7.62
2022-10-03T18:43:45.509Z,7.51
2022-10-03T18:46:45.219Z,7.35
2022-10-03T18:49:52.456Z,7.21
2022-10-03T18:53:06.454Z,7.26
2022-10-03T18:56:10.962Z,7.40
2022-10-03T18:59:39.760Z,7.32
2022-10-03T19:03:13.416Z,7.38
2022-10-03T19:06:28.632Z,7.35
2022-10-03T19:09:35.475Z,7.35
2022-10-03T19:12:39.371Z,7.21
2022-10-03T19:16:10.432Z,7.24
2022-10-03T19:19:12.381Z,7.11
2022-10-03T19:22:15.795Z,6.99
2022-10-03T19:25:25.085Z,7.07
2022-10-03T19:28:44.057Z,7.07
2022-10-03T19:31:51.408Z,6.95
2022-10-03T19:34:49.516Z,6.92
2022-10-03T19:38:00.509Z,6.77
2022-10-03T19:41:09.257Z,6.74
2022-10-03T19:44:18.961Z,6.90
2022-10-03T19:47:38.122Z,6.80
2022-10-03T19:50:37.975Z,6.71
2022-10-03T19:53:34.878Z,6.78
2022-10-03T19:56:35.266Z,6.64
2022-10-03T19:59:55.183Z,6.63
2022-10-03T20:03:17.268Z,6.63
2022-10-03T20:06:34.936Z,6.55
2022-10-03T20:09:33.054Z,6.51
2022-10-03T20:12:31.236Z,6.60
2022-10-03T20:15:28.145Z,6.52
2022-10-03T20:18:34.106Z,6.51
2022-10-03T20:21:33.438Z,6.31
2022-10-03T20:24:50.996Z,6.34
2022-10-03T20:27:54.322Z,6.44
2022-10-03T20:30:53.309Z,6.44
2022-10-03T20:33:53.519Z,6.31
2022-10-03T20:37:06.159Z,6.21
2022-10-03T20:40:28.099Z,6.13
2022-10-03T20:43:43.569Z,6.25
2022-10-03T20:46:50.118Z,6.09
2022-10-03T20:50:01.566Z,6.26
2022-10-03T20:53:01.781Z,6.23
2022-10-03T20:56:08.398Z,6.14
2022-10-03T20:59:11.110Z,6.08
2022-10-03T21:02:28.240Z,6.14
2022-10-03T21:05:35.390Z,6.01
2022-10-03T21:08:40.481Z,6.04
2022-10-03T21:11:39.633Z,6.06
2022-10-03T21:14:51.434Z,6.03
2022-10-03T21:17:49.722Z,6.02
2022-10-03T21:20:48.519Z,5.94
2022-10-03T21:24:06.554Z,6.02
2022-10-03T21:27:14.227Z,6.05
2022-10-03T21:30:22.250Z,5.99
2022-10-03T21:33:26.942Z,5.94
2022-10-03T21:36:48.254Z,5.87
2022-10-03T21:40:20.393Z,5.97
2022-10-03T21:43:52.938Z,6.10
2022-10-03T21:47:08.032Z,6.10
2022-10-03T21:50:16.479Z,5.86
2022-10-03T21:53:26.179Z,5.76
2022-10-03T21:56:50.822Z,5.91
2022-10-03T22:00:17.099Z,6.01
2022-10-03T22:03:39.181Z,5.92
2022-10-03T22:06:47.296Z,5.80
2022-10-03T22:09:50.441Z,5.71
2022-10-03T22:12:59.631Z,5.97
2022-10-03T22:16:22.262Z,5.98
2022-10-03T22:19:31.253Z,6.05
2022-10-03T22:22:41.685Z,6.01
2022-10-03T22:25:50.274Z,5.72
2022-10-03T22:28:57.787Z,5.77
2022-10-03T22:32:15.133Z,5.89
2022-10-03T22:35:50.928Z,5.97
2022-10-03T22:38:49.695Z,6.06
2022-10-03T22:41:56.700Z,6.09
2022-10-03T22:44:54.935Z,6.03
2022-10-03T22:47:57.287Z,6.11
2022-10-03T22:50:56.400Z,6.12
2022-10-03T22:54:02.020Z,6.17
2022-10-03T22:57:04.727Z,6.22
2022-10-03T23:00:11.659Z,6.23
2022-10-03T23:03:26.333Z,6.15
2022-10-03T23:07:19.682Z,6.19
2022-10-03T23:10:49.831Z,6.09
2022-10-03T23:13:47.685Z,5.98
2022-10-03T23:17:09.079Z,6.12
2022-10-03T23:20:59.235Z,6.28
2022-10-03T23:24:25.318Z,6.18
2022-10-03T23:27:53.070Z,5.98
2022-10-03T23:30:54.027Z,5.93
2022-10-03T23:33:52.566Z,5.70
2022-10-03T23:37:42.348Z,5.78
2022-10-03T23:40:47.816Z,5.92
2022-10-03T23:43:44.537Z,5.88
2022-10-03T23:46:42.272Z,5.76
2022-10-03T23:49:41.181Z,5.75
2022-10-03T23:52:55.503Z,5.68
2022-10-03T23:55:52.499Z,5.77
2022-10-03T23:59:03.283Z,5.69
